Time,TemperatureF,DewpointF,PressureIn,WindDirection,WindDirectionDegrees,WindSpeedMPH,WindSpeedGustMPH,Humidity,HourlyPrecipIn,Conditions,Clouds,dailyrainin,SoftwareType,DateUTC
2013-02-12 00:02:00,25.9,23.1,29.90,SSE,158,0.0,0.0,89,0.00,BKN,SKC,0.00,WeatherDisplay:10.37,2013-02-11 23:02:00,
2013-02-12 00:07:00,25.9,23.1,29.90,SE,135,0.0,0.0,89,0.00,BKN,SKC,0.00,WeatherDisplay:10.37,2013-02-11 23:07:00,
2013-02-12 00:12:00,25.9,22.8,29.91,NW,315,0.0,0.0,88,0.00,BKN,SKC,0.00,WeatherDisplay:10.37,2013-02-11 23:12:00,
2013-02-12 00:17:00,25.9,22.8,29.90,West,270,0.0,0.0,88,0.00,BKN,SKC,0.00,WeatherDisplay:10.37,2013-02-11 23:17:00,
2013-02-12 00:22:00,25.9,22.8,29.90,West,270,0.0,0.0,88,0.00,BKN,SKC,0.00,WeatherDisplay:10.37,2013-02-11 23:22:00,
2013-02-12 00:27:00,25.9,22.8,29.90,ESE,112,0.0,0.0,88,0.00,BKN,SKC,0.00,WeatherDisplay:10.37,2013-02-11 23:27:00,
2013-02-12 00:32:00,25.9,22.8,29.90,WNW,292,0.0,1.1,88,0.00,BKN,SKC,0.00,WeatherDisplay:10.37,2013-02-11 23:32:00,
2013-02-12 00:37:00,25.9,22.8,29.90,WNW,292,0.0,0.0,88,0.00,BKN,SKC,0.00,WeatherDisplay:10.37,2013-02-11 23:37:00,
2013-02-12 00:42:00,25.9,22.8,29.91,WSW,248,0.0,0.0,88,0.00,BKN,SKC,0.00,WeatherDisplay:10.37,2013-02-11 23:42:00,
2013-02-12 00:47:00,25.9,22.8,29.90,NE,45,0.0,0.0,88,0.00,BKN,SKC,0.00,WeatherDisplay:10.37,2013-02-11 23:47:00,
2013-02-12 00:52:00,25.9,22.8,29.90,West,270,0.0,0.0,88,0.00,BKN,SKC,0.00,WeatherDisplay:10.37,2013-02-11 23:52:00,
2013-02-12 00:57:00,25.9,22.8,29.90,NNE,22,1.8,2.3,88,0.00,BKN,SKC,0.00,WeatherDisplay:10.37,2013-02-11 23:57:00,
2013-02-12 01:02:00,25.9,22.8,29.90,SW,225,0.0,0.0,88,0.00,BKN,SKC,0.00,WeatherDisplay:10.37,2013-02-12 00:02:00,
2013-02-12 01:07:00,25.9,22.8,29.90,SW,225,0.0,0.0,88,0.00,BKN,SKC,0.00,WeatherDisplay:10.37,2013-02-12 00:07:00,
2013-02-12 01:12:00,26.1,23.0,29.90,WNW,292,0.9,1.1,88,0.00,BKN,SKC,0.00,WeatherDisplay:10.37,2013-02-12 00:12:00,
2013-02-12 01:17:00,26.1,23.0,29.90,NNW,338,1.7,2.3,88,0.00,BKN,SKC,0.00,WeatherDisplay:10.37,2013-02-12 00:17:00,
2013-02-12 01:22:00,26.2,23.2,29.91,NE,45,1.3,2.3,88,0.00,BKN,SKC,0.00,WeatherDisplay:10.37,2013-02-12 00:22:00,
2013-02-12 01:27:00,26.2,23.2,29.90,NNW,338,1.0,2.9,88,0.00,BKN,SKC,0.00,WeatherDisplay:10.37,2013-02-12 00:27:00,
2013-02-12 01:32:00,26.2,23.2,29.90,West,270,1.1,1.3,88,0.00,BKN,SKC,0.00,WeatherDisplay:10.37,2013-02-12 00:32:00,
2013-02-12 01:37:00,26.4,23.3,29.90,NW,315,1.9,2.3,88,0.00,BKN,SKC,0.00,WeatherDisplay:10.37,2013-02-12 00:37:00,
2013-02-12 01:42:00,26.4,23.3,29.90,NNW,338,1.8,2.3,88,0.00,BKN,SKC,0.00,WeatherDisplay:10.37,2013-02-12 00:42:00,
2013-02-12 01:47:00,26.4,23.3,29.90,NNW,338,0.5,1.1,88,0.00,CLR,SKC,0.00,WeatherDisplay:10.37,2013-02-12 00:47:00,
2013-02-12 01:52:00,26.4,23.3,29.90,NW,315,1.0,2.7,88,0.00,CLR,SKC,0.00,WeatherDisplay:10.37,2013-02-12 00:52:00,
2013-02-12 01:57:00,26.4,23.3,29.90,WNW,292,2.0,2.3,88,0.00,CLR,SKC,0.00,WeatherDisplay:10.37,2013-02-12 00:57:00,
2013-02-12 02:02:00,26.4,23.3,29.90,WNW,292,2.0,2.3,88,0.00,CLR,SKC,0.00,WeatherDisplay:10.37,2013-02-12 01:02:00,
2013-02-12 02:07:00,26.4,23.3,29.89,WNW,292,1.6,2.3,88,0.00,CLR,SKC,0.00,WeatherDisplay:10.37,2013-02-12 01:07:00,
2013-02-12 02:12:00,26.4,23.3,29.89,East,90,0.0,1.1,88,0.00,CLR,SKC,0.00,WeatherDisplay:10.37,2013-02-12 01:12:00,
2013-02-12 02:17:00,26.4,23.3,29.88,NNW,338,0.1,3.5,88,0.00,CLR,SKC,0.00,WeatherDisplay:10.37,2013-02-12 01:17:00,
2013-02-12 02:22:00,26.4,23.3,29.88,West,270,1.0,1.1,88,0.00,CLR,SKC,0.00,WeatherDisplay:10.37,2013-02-12 01:22:00,
2013-02-12 02:27:00,26.6,23.5,29.88,WSW,248,1.3,3.5,88,0.00,CLR,SKC,0.00,WeatherDisplay:10.37,2013-02-12 01:27:00,
2013-02-12 02:32:00,26.6,23.5,29.88,SE,135,0.0,0.0,88,0.00,CLR,SKC,0.00,WeatherDisplay:10.37,2013-02-12 01:32:00,
2013-02-12 02:37:00,26.8,23.7,29.88,NW,315,2.0,2.3,88,0.00,CLR,SKC,0.00,WeatherDisplay:10.37,2013-02-12 01:37:00,
2013-02-12 02:42:00,26.8,23.4,29.88,WNW,292,0.0,0.0,87,0.00,CLR,SKC,0.00,WeatherDisplay:10.37,2013-02-12 01:42:00,
2013-02-12 02:47:00,26.8,23.4,29.88,NNW,338,1.8,2.3,87,0.00,CLR,SKC,0.00,WeatherDisplay:10.37,2013-02-12 01:47:00,
2013-02-12 02:52:00,26.8,23.4,29.87,WNW,292,0.2,2.3,87,0.00,CLR,SKC,0.00,WeatherDisplay:10.37,2013-02-12 01:52:00,
2013-02-12 02:57:00,26.8,23.4,29.87,West,270,0.0,0.0,87,0.00,CLR,SKC,0.00,WeatherDisplay:10.37,2013-02-12 01:57:00,
2013-02-12 03:02:00,27.1,23.8,29.87,East,90,0.0,0.0,87,0.00,CLR,SKC,0.00,WeatherDisplay:10.37,2013-02-12 02:02:00,
2013-02-12 03:07:00,27.1,23.8,29.88,West,270,0.2,0.0,87,0.00,CLR,SKC,0.00,WeatherDisplay:10.37,2013-02-12 02:07:00,
2013-02-12 03:12:00,27.1,23.8,29.88,WSW,248,0.0,0.0,87,0.00,CLR,SKC,0.00,WeatherDisplay:10.37,2013-02-12 02:12:00,
2013-02-12 03:17:00,27.1,23.8,29.87,East,90,0.0,0.0,87,0.00,CLR,SKC,0.00,WeatherDisplay:10.37,2013-02-12 02:17:00,
2013-02-12 03:22:00,27.1,23.8,29.87,WNW,292,1.3,1.3,87,0.00,CLR,SKC,0.00,WeatherDisplay:10.37,2013-02-12 02:22:00,
2013-02-12 03:27:00,27.3,24.0,29.87,East,90,1.3,1.3,87,0.00,CLR,SKC,0.00,WeatherDisplay:10.37,2013-02-12 02:27:00,
2013-02-12 03:32:00,27.3,24.0,29.87,East,90,0.0,0.0,87,0.00,BKN,SKC,0.00,WeatherDisplay:10.37,2013-02-12 02:32:00,
2013-02-12 03:37:00,27.3,23.7,29.87,North,0,0.4,1.1,86,0.00,BKN,SKC,0.00,WeatherDisplay:10.37,2013-02-12 02:37:00,
2013-02-12 03:42:00,27.5,24.1,29.87,West,270,0.5,1.8,87,0.00,BKN,SKC,0.00,WeatherDisplay:10.37,2013-02-12 02:42:00,
2013-02-12 03:47:00,27.5,24.1,29.87,WNW,292,0.0,1.1,87,0.00,BKN,SKC,0.00,WeatherDisplay:10.37,2013-02-12 02:47:00,
2013-02-12 03:52:00,27.7,24.3,29.87,SW,225,0.0,2.3,87,0.00,BKN,SKC,0.00,WeatherDisplay:10.37,2013-02-12 02:52:00,
2013-02-12 03:57:00,27.7,24.3,29.87,ENE,68,0.0,0.0,87,0.00,BKN,SKC,0.00,WeatherDisplay:10.37,2013-02-12 02:57:00,
2013-02-12 04:02:00,27.7,24.3,29.86,East,90,0.0,0.0,87,0.00,BKN,SKC,0.00,WeatherDisplay:10.37,2013-02-12 03:02:00,
2013-02-12 04:07:00,27.7,24.3,29.86,NNE,22,0.0,1.1,87,0.00,BKN,SKC,0.00,WeatherDisplay:10.37,2013-02-12 03:07:00,
2013-02-12 04:12:00,28.0,24.7,29.86,East,90,0.0,0.0,87,0.00,BKN,SKC,0.00,WeatherDisplay:10.37,2013-02-12 03:12:00,
2013-02-12 04:17:00,28.2,24.8,29.86,East,90,0.0,0.0,87,0.00,BKN,SKC,0.00,WeatherDisplay:10.37,2013-02-12 03:17:00,
2013-02-12 04:22:00,28.2,24.8,29.85,ESE,112,0.9,2.3,87,0.00,BKN,SKC,0.00,WeatherDisplay:10.37,2013-02-12 03:22:00,
2013-02-12 04:27:00,28.4,25.0,29.85,ESE,109,0.0,0.0,87,0.00,BKN,SKC,0.00,WeatherDisplay:10.37,2013-02-12 03:27:00,
2013-02-12 04:32:00,28.6,24.9,29.85,East,90,0.0,0.0,86,0.00,BKN,SKC,0.00,WeatherDisplay:10.37,2013-02-12 03:32:00,
2013-02-12 04:37:00,28.6,24.9,29.85,East,90,1.3,1.3,86,0.00,BKN,SKC,0.00,WeatherDisplay:10.37,2013-02-12 03:37:00,
2013-02-12 04:42:00,28.8,25.1,29.85,ESE,112,0.0,0.0,86,0.00,BKN,SKC,0.00,WeatherDisplay:10.37,2013-02-12 03:42:00,
2013-02-12 04:47:00,28.8,25.1,29.85,East,90,0.9,1.1,86,0.00,BKN,SKC,0.00,WeatherDisplay:10.37,2013-02-12 03:47:00,
2013-02-12 04:52:00,28.9,25.3,29.85,NE,45,1.8,3.5,86,0.00,BKN,SKC,0.00,WeatherDisplay:10.37,2013-02-12 03:52:00,
2013-02-12 04:57:00,28.9,25.3,29.84,East,90,0.0,0.0,86,0.00,BKN,SKC,0.00,WeatherDisplay:10.37,2013-02-12 03:57:00,
2013-02-12 05:02:00,28.9,25.3,29.85,NNE,22,2.8,3.5,86,0.00,BKN,SKC,0.00,WeatherDisplay:10.37,2013-02-12 04:02:00,
2013-02-12 05:07:00,28.9,25.3,29.84,East,90,0.0,0.0,86,0.00,BKN,SKC,0.00,WeatherDisplay:10.37,2013-02-12 04:07:00,
2013-02-12 05:12:00,28.9,25.3,29.84,NNE,22,1.1,1.1,86,0.00,BKN,SKC,0.00,WeatherDisplay:10.37,2013-02-12 04:12:00,
2013-02-12 05:17:00,29.1,25.5,29.84,ENE,68,1.7,2.3,86,0.00,BKN,SKC,0.00,WeatherDisplay:10.37,2013-02-12 04:17:00,
2013-02-12 05:22:00,29.1,25.5,29.85,ESE,112,1.6,2.0,86,0.00,BKN,SKC,0.00,WeatherDisplay:10.37,2013-02-12 04:22:00,
2013-02-12 05:27:00,29.3,25.4,29.85,ESE,114,0.0,0.0,85,0.00,BKN,SKC,0.00,WeatherDisplay:10.37,2013-02-12 04:27:00,
2013-02-12 05:32:00,29.2,25.3,29.84,ESE,116,0.0,0.0,85,0.00,BKN,SKC,0.00,WeatherDisplay:10.37,2013-02-12 04:32:00,
2013-02-12 05:37:00,29.3,25.4,29.84,ESE,106,0.0,1.0,85,0.00,BKN,SKC,0.00,WeatherDisplay:10.37,2013-02-12 04:37:00,
2013-02-12 05:42:00,29.3,25.4,29.84,ENE,76,0.0,0.0,85,0.00,BKN,SKC,0.00,WeatherDisplay:10.37,2013-02-12 04:42:00,
2013-02-12 05:47:00,29.1,25.2,29.84,East,87,0.0,0.0,85,0.00,OVC,SKC,0.00,WeatherDisplay:10.37,2013-02-12 04:47:00,
2013-02-12 05:52:00,29.3,25.4,29.84,ENE,73,5.0,5.0,85,0.00,OVC,SKC,0.00,WeatherDisplay:10.37,2013-02-12 04:52:00,
2013-02-12 05:57:00,29.1,25.2,29.83,ESE,112,0.0,1.1,85,0.00,OVC,SKC,0.00,WeatherDisplay:10.37,2013-02-12 04:57:00,
2013-02-12 06:00:00,29.1,25.2,29.84,ESE,112,0.6,1.1,85,0.00,OVC,SKC,0.00,WeatherDisplay:10.37,2013-02-12 05:00:00,
2013-02-12 06:01:00,29.1,25.2,29.84,ESE,112,0.9,1.1,85,0.00,OVC,SKC,0.00,WeatherDisplay:10.37,2013-02-12 05:01:00,
2013-02-12 06:06:00,29.1,25.2,29.83,East,90,0.9,2.3,85,0.00,OVC,SKC,0.00,WeatherDisplay:10.37,2013-02-12 05:06:00,
2013-02-12 06:11:00,29.3,25.4,29.83,SSE,158,1.2,1.2,85,0.00,OVC,SKC,0.00,WeatherDisplay:10.37,2013-02-12 05:11:00,
2013-02-12 06:16:00,29.3,25.4,29.83,NNW,338,1.3,1.3,85,0.00,OVC,SKC,0.00,WeatherDisplay:10.37,2013-02-12 05:16:00,
2013-02-12 06:21:00,29.3,25.4,29.83,NE,45,0.0,0.0,85,0.00,OVC,SKC,0.00,WeatherDisplay:10.37,2013-02-12 05:21:00,
2013-02-12 06:26:00,29.3,25.4,29.83,SE,135,0.0,0.0,85,0.00,OVC,SKC,0.00,WeatherDisplay:10.37,2013-02-12 05:26:00,
2013-02-12 06:31:00,29.3,25.4,29.83,SE,135,0.0,0.0,85,0.00,OVC,SKC,0.00,WeatherDisplay:10.37,2013-02-12 05:31:00,
2013-02-12 06:36:00,29.5,25.5,29.83,East,90,1.3,1.3,85,0.00,OVC,SKC,0.00,WeatherDisplay:10.37,2013-02-12 05:36:00,
2013-02-12 06:41:00,29.5,25.5,29.84,ENE,68,1.1,1.1,85,0.00,OVC,SKC,0.00,WeatherDisplay:10.37,2013-02-12 05:41:00,
2013-02-12 06:46:00,29.5,25.5,29.84,East,90,2.2,2.3,85,0.00,OVC,SKC,0.00,WeatherDisplay:10.37,2013-02-12 05:46:00,
2013-02-12 06:51:00,29.7,25.7,29.84,ESE,112,0.2,1.1,85,0.00,OVC,SKC,0.00,WeatherDisplay:10.37,2013-02-12 05:51:00,
2013-02-12 06:56:00,29.7,25.7,29.84,SSW,202,0.9,1.1,85,0.00,OVC,SKC,0.00,WeatherDisplay:10.37,2013-02-12 05:56:00,
2013-02-12 07:01:00,29.7,25.7,29.84,ESE,112,1.1,1.3,85,0.00,OVC,SKC,0.00,WeatherDisplay:10.37,2013-02-12 06:01:00,
2013-02-12 07:06:00,30.0,25.8,29.83,ESE,112,0.0,0.0,84,0.00,OVC,SKC,0.00,WeatherDisplay:10.37,2013-02-12 06:06:00,
2013-02-12 07:11:00,30.0,25.8,29.83,NNE,22,0.4,1.1,84,0.00,OVC,SKC,0.00,WeatherDisplay:10.37,2013-02-12 06:11:00,
2013-02-12 07:16:00,30.0,25.8,29.83,SSE,158,1.1,1.1,84,0.00,OVC,SKC,0.00,WeatherDisplay:10.37,2013-02-12 06:16:00,
2013-02-12 07:21:00,30.0,25.8,29.83,East,90,1.6,1.6,84,0.00,OVC,SKC,0.00,WeatherDisplay:10.37,2013-02-12 06:21:00,
2013-02-12 07:26:00,30.2,25.9,29.83,ENE,68,1.3,1.3,84,0.00,OVC,SKC,0.00,WeatherDisplay:10.37,2013-02-12 06:26:00,
2013-02-12 07:31:00,30.4,26.1,29.83,East,90,1.8,2.3,84,0.00,OVC,SKC,0.00,WeatherDisplay:10.37,2013-02-12 06:31:00,
2013-02-12 07:36:00,30.6,26.0,29.83,East,90,1.4,1.6,83,0.00,OVC,SKC,0.00,WeatherDisplay:10.37,2013-02-12 06:36:00,
2013-02-12 07:41:00,30.7,26.2,29.83,SE,135,0.0,0.0,83,0.00,OVC,SKC,0.00,WeatherDisplay:10.37,2013-02-12 06:41:00,
2013-02-12 07:46:00,30.7,26.2,29.83,East,90,0.9,3.5,83,0.00,BKN,SKC,0.00,WeatherDisplay:10.37,2013-02-12 06:46:00,
2013-02-12 07:51:00,30.9,26.4,29.84,SSE,158,0.8,1.1,83,0.00,BKN,SKC,0.00,WeatherDisplay:10.37,2013-02-12 06:51:00,
2013-02-12 07:56:00,30.9,26.4,29.83,ENE,68,1.0,1.1,83,0.00,BKN,SKC,0.00,WeatherDisplay:10.37,2013-02-12 06:56:00,
2013-02-12 08:01:00,31.3,26.4,29.83,ESE,112,1.5,1.6,82,0.00,BKN,SKC,0.00,WeatherDisplay:10.37,2013-02-12 07:01:00,
2013-02-12 08:06:00,31.3,26.4,29.83,East,90,0.0,0.0,82,0.00,BKN,SKC,0.00,WeatherDisplay:10.37,2013-02-12 07:06:00,
2013-02-12 08:11:00,31.6,26.8,29.83,ENE,68,2.7,2.7,82,0.00,BKN,SKC,0.00,WeatherDisplay:10.37,2013-02-12 07:11:00,
2013-02-12 08:16:00,31.6,26.5,29.83,SE,135,1.0,2.3,81,0.00,OVC,SKC,0.00,WeatherDisplay:10.37,2013-02-12 07:16:00,
2013-02-12 08:21:00,31.6,26.5,29.83,East,90,1.1,1.1,81,0.00,OVC,SKC,0.00,WeatherDisplay:10.37,2013-02-12 07:21:00,
2013-02-12 08:26:00,31.8,26.7,29.83,SE,135,1.1,2.3,81,0.00,OVC,SKC,0.00,WeatherDisplay:10.37,2013-02-12 07:26:00,
2013-02-12 08:31:00,31.8,26.7,29.83,NE,45,2.7,2.7,81,0.00,OVC,SKC,0.00,WeatherDisplay:10.37,2013-02-12 07:31:00,
2013-02-12 08:36:00,32.0,26.8,29.83,ESE,112,2.4,2.4,81,0.00,OVC,SKC,0.00,WeatherDisplay:10.37,2013-02-12 07:36:00,
2013-02-12 08:41:00,32.2,26.4,29.83,South,180,0.3,2.3,79,0.00,OVC,SKC,0.00,WeatherDisplay:10.37,2013-02-12 07:41:00,
2013-02-12 08:46:00,32.2,26.7,29.83,ESE,112,1.1,2.3,80,0.00,OVC,SKC,0.00,WeatherDisplay:10.37,2013-02-12 07:46:00,
2013-02-12 08:51:00,32.2,26.7,29.83,ESE,112,0.0,0.0,80,0.00,OVC,SKC,0.00,WeatherDisplay:10.37,2013-02-12 07:51:00,
2013-02-12 08:56:00,32.2,26.7,29.84,ESE,112,0.0,0.0,80,0.00,OVC,SKC,0.00,WeatherDisplay:10.37,2013-02-12 07:56:00,
2013-02-12 09:01:00,32.2,26.4,29.84,ENE,68,1.9,2.0,79,0.00,OVC,SKC,0.00,WeatherDisplay:10.37,2013-02-12 08:01:00,
2013-02-12 09:06:00,32.4,26.6,29.83,ESE,112,0.0,0.0,79,0.00,OVC,SKC,0.00,WeatherDisplay:10.37,2013-02-12 08:06:00,
2013-02-12 09:11:00,32.4,26.6,29.84,East,90,2.2,2.3,79,0.00,OVC,SKC,0.00,WeatherDisplay:10.37,2013-02-12 08:11:00,
2013-02-12 09:16:00,32.5,26.7,29.84,East,90,0.0,2.3,79,0.00,OVC,SKC,0.00,WeatherDisplay:10.37,2013-02-12 08:16:00,
2013-02-12 09:21:00,32.7,26.9,29.84,North,0,0.0,0.0,79,0.00,OVC,SKC,0.00,WeatherDisplay:10.37,2013-02-12 08:21:00,
2013-02-12 09:26:00,32.9,27.1,29.84,ESE,112,0.0,0.0,79,0.00,OVC,SKC,0.00,WeatherDisplay:10.37,2013-02-12 08:26:00,
2013-02-12 09:31:00,32.9,26.8,29.84,East,90,4.4,8.1,78,0.00,OVC,SKC,0.00,WeatherDisplay:10.37,2013-02-12 08:31:00,
2013-02-12 09:36:00,32.9,26.8,29.84,ESE,112,1.2,2.3,78,0.00,OVC,SKC,0.00,WeatherDisplay:10.37,2013-02-12 08:36:00,
2013-02-12 09:41:00,32.9,26.8,29.84,ENE,68,0.0,2.3,78,0.00,OVC,SKC,0.00,WeatherDisplay:10.37,2013-02-12 08:41:00,
2013-02-12 09:46:00,33.1,27.0,29.84,ESE,112,0.0,0.0,78,0.00,CLR,SKC,0.00,WeatherDisplay:10.37,2013-02-12 08:46:00,
2013-02-12 09:51:00,33.1,27.0,29.84,ESE,112,0.0,0.0,78,0.00,CLR,SKC,0.00,WeatherDisplay:10.37,2013-02-12 08:51:00,
2013-02-12 09:56:00,33.1,27.0,29.85,ESE,112,0.0,0.0,78,0.00,CLR,SKC,0.00,WeatherDisplay:10.37,2013-02-12 08:56:00,
2013-02-12 10:01:00,33.1,27.0,29.85,ENE,68,0.9,1.1,78,0.00,CLR,SKC,0.00,WeatherDisplay:10.37,2013-02-12 09:01:00,
2013-02-12 10:06:00,33.1,27.0,29.85,ESE,112,0.0,0.0,78,0.00,CLR,SKC,0.00,WeatherDisplay:10.37,2013-02-12 09:06:00,
2013-02-12 10:11:00,33.1,27.0,29.85,NE,45,0.9,3.8,78,0.00,CLR,SKC,0.00,WeatherDisplay:10.37,2013-02-12 09:11:00,
2013-02-12 10:16:00,32.9,27.1,29.85,ENE,68,0.0,0.0,79,0.00,CLR,SKC,0.00,WeatherDisplay:10.37,2013-02-12 09:16:00,
2013-02-12 10:21:00,32.5,27.1,29.85,SSE,158,0.0,0.0,80,0.00,CLR,SKC,0.00,WeatherDisplay:10.37,2013-02-12 09:21:00,
2013-02-12 10:26:00,32.2,27.0,29.85,ESE,112,0.0,0.0,81,0.00,CLR,SKC,0.00,WeatherDisplay:10.37,2013-02-12 09:26:00,
2013-02-12 10:31:00,31.8,27.2,29.85,ESE,112,0.0,0.0,83,0.00,-SN,SKC,0.00,WeatherDisplay:10.37,2013-02-12 09:31:00,
2013-02-12 10:36:00,31.6,27.1,29.85,ESE,112,0.0,0.0,83,0.00,-SN,SKC,0.00,WeatherDisplay:10.37,2013-02-12 09:36:00,
2013-02-12 10:41:00,31.6,27.4,29.85,SSE,158,0.6,1.1,84,0.00,-SN,SKC,0.00,WeatherDisplay:10.37,2013-02-12 09:41:00,
2013-02-12 10:46:00,31.5,27.2,29.85,ENE,68,0.0,0.0,84,0.00,-SN,SKC,0.00,WeatherDisplay:10.37,2013-02-12 09:46:00,
2013-02-12 10:51:00,31.3,27.0,29.85,South,180,1.6,1.6,84,0.00,-SN,SKC,0.00,WeatherDisplay:10.37,2013-02-12 09:51:00,
2013-02-12 10:56:00,31.3,27.3,29.85,ESE,112,0.0,0.0,85,0.00,-SN,SKC,0.00,WeatherDisplay:10.37,2013-02-12 09:56:00,
2013-02-12 11:01:00,31.5,27.5,29.85,ESE,112,0.0,0.0,85,0.00,-SN,SKC,0.00,WeatherDisplay:10.37,2013-02-12 10:01:00,
2013-02-12 11:06:00,31.6,27.9,29.85,ENE,68,0.0,0.0,86,0.00,-SN,SKC,0.00,WeatherDisplay:10.37,2013-02-12 10:06:00,
2013-02-12 11:11:00,31.3,27.6,29.85,SE,135,3.7,5.8,86,0.00,-SN,SKC,0.00,WeatherDisplay:10.37,2013-02-12 10:11:00,
2013-02-12 11:16:00,31.3,27.6,29.85,ESE,112,0.7,1.1,86,0.00,-SN,SKC,0.00,WeatherDisplay:10.37,2013-02-12 10:16:00,
2013-02-12 11:21:00,31.3,27.6,29.85,ENE,68,0.0,0.0,86,0.00,-SN,SKC,0.00,WeatherDisplay:10.37,2013-02-12 10:21:00,
2013-02-12 11:26:00,31.3,27.9,29.84,NW,315,0.2,1.1,87,0.00,-SN,SKC,0.00,WeatherDisplay:10.37,2013-02-12 10:26:00,
2013-02-12 11:31:00,31.6,28.2,29.84,NNE,22,1.8,2.3,87,0.00,-SN,SKC,0.00,WeatherDisplay:10.37,2013-02-12 10:31:00,
2013-02-12 11:36:00,31.5,28.0,29.84,NNE,22,0.9,2.3,87,0.00,-SN,SKC,0.00,WeatherDisplay:10.37,2013-02-12 10:36:00,
2013-02-12 11:41:00,31.3,28.1,29.84,East,90,0.9,1.1,88,0.00,-SN,SKC,0.00,WeatherDisplay:10.37,2013-02-12 10:41:00,
2013-02-12 11:46:00,31.5,28.3,29.84,East,90,0.0,1.1,88,0.00,OVC,SKC,0.00,WeatherDisplay:10.37,2013-02-12 10:46:00,
2013-02-12 11:51:00,31.3,28.1,29.83,East,90,1.4,2.3,88,0.00,OVC,SKC,0.00,WeatherDisplay:10.37,2013-02-12 10:51:00,
2013-02-12 11:56:00,31.3,28.1,29.83,East,90,1.8,2.3,88,0.00,OVC,SKC,0.00,WeatherDisplay:10.37,2013-02-12 10:56:00,
2013-02-12 12:01:00,31.3,28.1,29.83,East,90,2.0,3.4,88,0.00,OVC,SKC,0.00,WeatherDisplay:10.37,2013-02-12 11:01:00,
2013-02-12 12:06:00,31.6,28.5,29.83,East,90,1.2,3.5,88,0.00,OVC,SKC,0.00,WeatherDisplay:10.37,2013-02-12 11:06:00,
2013-02-12 12:11:00,31.6,28.5,29.83,East,90,0.9,1.1,88,0.00,OVC,SKC,0.00,WeatherDisplay:10.37,2013-02-12 11:11:00,
2013-02-12 12:16:00,31.6,28.8,29.83,East,90,0.0,0.0,89,0.00,-SN,SKC,0.00,WeatherDisplay:10.37,2013-02-12 11:16:00,
2013-02-12 12:21:00,31.8,28.9,29.83,East,90,0.0,0.0,89,0.00,-SN,SKC,0.00,WeatherDisplay:10.37,2013-02-12 11:21:00,
2013-02-12 12:26:00,31.8,28.9,29.83,East,90,0.0,0.0,89,0.00,-SN,SKC,0.00,WeatherDisplay:10.37,2013-02-12 11:26:00,
2013-02-12 12:31:00,32.2,29.3,29.82,East,90,1.8,2.3,89,0.00,-SN,SKC,0.00,WeatherDisplay:10.37,2013-02-12 11:31:00,
2013-02-12 12:36:00,32.2,29.3,29.83,East,90,0.0,0.0,89,0.00,-SN,SKC,0.00,WeatherDisplay:10.37,2013-02-12 11:36:00,
2013-02-12 12:41:00,32.4,29.5,29.83,East,90,0.0,0.0,89,0.00,-SN,SKC,0.00,WeatherDisplay:10.37,2013-02-12 11:41:00,
2013-02-12 12:46:00,32.5,29.7,29.82,East,90,0.0,0.0,89,0.00,-SN,SKC,0.00,WeatherDisplay:10.37,2013-02-12 11:46:00,
2013-02-12 12:51:00,32.7,29.8,29.82,East,90,0.0,0.0,89,0.00,-SN,SKC,0.00,WeatherDisplay:10.37,2013-02-12 11:51:00,
2013-02-12 12:56:00,32.7,29.8,29.82,East,90,0.0,2.3,89,0.00,-SN,SKC,0.00,WeatherDisplay:10.37,2013-02-12 11:56:00,
2013-02-12 13:01:00,32.7,29.8,29.82,East,90,0.9,1.1,89,0.00,-SN,SKC,0.00,WeatherDisplay:10.37,2013-02-12 12:01:00,
2013-02-12 13:06:00,33.1,30.2,29.82,East,90,0.0,1.1,89,0.00,-SN,SKC,0.00,WeatherDisplay:10.37,2013-02-12 12:06:00,
2013-02-12 13:11:00,33.4,30.5,29.82,East,90,0.0,0.0,89,0.00,-SN,SKC,0.00,WeatherDisplay:10.37,2013-02-12 12:11:00,
2013-02-12 13:16:00,33.6,30.7,29.81,NNW,338,1.3,1.3,89,0.00,-SN,SKC,0.00,WeatherDisplay:10.37,2013-02-12 12:16:00,
2013-02-12 13:21:00,34.0,31.1,29.81,NNE,22,2.6,3.5,89,0.00,-SN,SKC,0.00,WeatherDisplay:10.37,2013-02-12 12:21:00,
2013-02-12 13:26:00,34.0,30.8,29.81,ENE,68,1.8,2.3,88,0.00,-SN,SKC,0.00,WeatherDisplay:10.37,2013-02-12 12:26:00,
2013-02-12 13:31:00,34.5,31.3,29.81,NW,315,0.0,1.1,88,0.00,-SN,SKC,0.00,WeatherDisplay:10.37,2013-02-12 12:31:00,
2013-02-12 13:36:00,34.7,31.5,29.81,NE,45,0.2,0.0,88,0.00,-SN,SKC,0.00,WeatherDisplay:10.37,2013-02-12 12:36:00,
2013-02-12 13:41:00,34.9,31.4,29.81,ENE,68,0.0,0.0,87,0.00,-SN,SKC,0.00,WeatherDisplay:10.37,2013-02-12 12:41:00,
2013-02-12 13:46:00,35.2,31.8,29.82,NNE,22,0.0,0.0,87,0.00,OVC,SKC,0.00,WeatherDisplay:10.37,2013-02-12 12:46:00,
2013-02-12 13:51:00,35.2,31.8,29.81,NNE,22,0.0,0.0,87,0.00,OVC,SKC,0.00,WeatherDisplay:10.37,2013-02-12 12:51:00,
2013-02-12 13:56:00,35.2,31.5,29.82,ENE,68,0.0,0.0,86,0.00,OVC,SKC,0.00,WeatherDisplay:10.37,2013-02-12 12:56:00,
2013-02-12 14:01:00,35.2,31.5,29.82,ENE,68,0.0,0.0,86,0.00,OVC,SKC,0.00,WeatherDisplay:10.37,2013-02-12 13:01:00,
2013-02-12 14:06:00,35.4,31.4,29.82,NE,45,0.1,1.1,85,0.00,OVC,SKC,0.00,WeatherDisplay:10.37,2013-02-12 13:06:00,
2013-02-12 14:11:00,35.4,31.1,29.81,NE,45,0.0,2.3,84,0.00,OVC,SKC,0.00,WeatherDisplay:10.37,2013-02-12 13:11:00,
2013-02-12 14:16:00,35.8,31.4,29.81,ENE,68,0.0,0.0,84,0.00,OVC,SKC,0.00,WeatherDisplay:10.37,2013-02-12 13:16:00,
2013-02-12 14:22:00,35.8,31.4,29.81,NE,45,0.0,0.0,84,0.00,OVC,SKC,0.00,WeatherDisplay:10.37,2013-02-12 13:22:00,
2013-02-12 14:27:00,36.0,31.3,29.81,NE,42,1.0,1.0,83,0.00,OVC,SKC,0.00,WeatherDisplay:10.37,2013-02-12 13:27:00,
2013-02-12 14:32:00,35.8,31.1,29.81,NE,46,0.0,0.0,83,0.00,OVC,SKC,0.00,WeatherDisplay:10.37,2013-02-12 13:32:00,
2013-02-12 14:37:00,35.8,31.1,29.82,ENE,58,0.0,0.0,83,0.00,OVC,SKC,0.00,WeatherDisplay:10.37,2013-02-12 13:37:00,
2013-02-12 14:42:00,35.8,31.1,29.81,NE,45,0.0,0.0,83,0.00,OVC,SKC,0.00,WeatherDisplay:10.37,2013-02-12 13:42:00,
2013-02-12 14:47:00,35.8,31.1,29.81,ENE,68,0.0,0.0,83,0.00,-SN,SKC,0.00,WeatherDisplay:10.37,2013-02-12 13:47:00,
2013-02-12 14:52:00,35.8,31.1,29.81,ENE,68,0.0,0.0,83,0.00,-SN,SKC,0.00,WeatherDisplay:10.37,2013-02-12 13:52:00,
2013-02-12 14:57:00,35.8,31.1,29.81,ENE,68,0.0,0.0,83,0.00,-SN,SKC,0.00,WeatherDisplay:10.37,2013-02-12 13:57:00,
2013-02-12 15:02:00,35.8,31.1,29.81,SE,135,0.0,0.0,83,0.00,-SN,SKC,0.00,WeatherDisplay:10.37,2013-02-12 14:02:00,
2013-02-12 15:07:00,35.8,31.1,29.81,NNE,22,0.0,0.0,83,0.00,-SN,SKC,0.00,WeatherDisplay:10.37,2013-02-12 14:07:00,
2013-02-12 15:12:00,35.8,31.1,29.82,NNE,22,0.2,1.1,83,0.00,-SN,SKC,0.00,WeatherDisplay:10.37,2013-02-12 14:12:00,
2013-02-12 15:17:00,35.4,30.8,29.81,ENE,68,0.0,0.0,83,0.00,-SN,SKC,0.00,WeatherDisplay:10.37,2013-02-12 14:17:00,
2013-02-12 15:22:00,35.4,30.8,29.81,NNE,22,1.3,1.3,83,0.00,-SN,SKC,0.00,WeatherDisplay:10.37,2013-02-12 14:22:00,
2013-02-12 15:27:00,35.4,30.8,29.81,NW,315,2.2,2.3,83,0.00,-SN,SKC,0.00,WeatherDisplay:10.37,2013-02-12 14:27:00,
2013-02-12 15:32:00,35.4,30.5,29.81,ENE,68,0.0,0.0,82,0.00,-SN,SKC,0.00,WeatherDisplay:10.37,2013-02-12 14:32:00,
2013-02-12 15:37:00,35.6,30.6,29.81,ENE,68,2.2,2.3,82,0.00,-SN,SKC,0.00,WeatherDisplay:10.37,2013-02-12 14:37:00,
2013-02-12 15:42:00,35.8,30.8,29.81,East,90,0.0,0.0,82,0.00,-SN,SKC,0.00,WeatherDisplay:10.37,2013-02-12 14:42:00,
2013-02-12 15:47:00,35.8,30.5,29.82,North,0,0.0,0.0,81,0.00,-SN,SKC,0.00,WeatherDisplay:10.37,2013-02-12 14:47:00,
2013-02-12 15:52:00,35.6,30.6,29.81,NNW,338,0.0,0.0,82,0.00,-SN,SKC,0.00,WeatherDisplay:10.37,2013-02-12 14:52:00,
2013-02-12 15:57:00,35.4,30.5,29.82,ESE,112,0.0,0.0,82,0.00,-SN,SKC,0.00,WeatherDisplay:10.37,2013-02-12 14:57:00,
2013-02-12 16:02:00,35.4,30.5,29.81,SE,135,0.0,0.0,82,0.00,-SN,SKC,0.00,WeatherDisplay:10.37,2013-02-12 15:02:00,
2013-02-12 16:07:00,35.4,30.5,29.81,NNE,22,0.4,1.1,82,0.00,-SN,SKC,0.00,WeatherDisplay:10.37,2013-02-12 15:07:00,
2013-02-12 16:12:00,35.4,30.5,29.81,NNE,22,2.2,2.3,82,0.00,-SN,SKC,0.00,WeatherDisplay:10.37,2013-02-12 15:12:00,
2013-02-12 16:17:00,35.4,30.5,29.81,ENE,68,1.9,2.3,82,0.00,OVC,SKC,0.00,WeatherDisplay:10.37,2013-02-12 15:17:00,
2013-02-12 16:22:00,35.4,30.5,29.81,North,0,0.0,0.0,82,0.00,OVC,SKC,0.00,WeatherDisplay:10.37,2013-02-12 15:22:00,
2013-02-12 16:27:00,35.4,30.5,29.81,North,0,0.0,0.0,82,0.00,OVC,SKC,0.00,WeatherDisplay:10.37,2013-02-12 15:27:00,
2013-02-12 16:32:00,35.4,30.5,29.81,North,0,0.0,0.0,82,0.00,OVC,SKC,0.00,WeatherDisplay:10.37,2013-02-12 15:32:00,
2013-02-12 16:37:00,35.4,30.5,29.81,North,0,0.0,0.0,82,0.00,OVC,SKC,0.00,WeatherDisplay:10.37,2013-02-12 15:37:00,
2013-02-12 16:42:00,35.2,30.3,29.81,NE,45,2.0,2.3,82,0.00,OVC,SKC,0.00,WeatherDisplay:10.37,2013-02-12 15:42:00,
2013-02-12 16:47:00,35.2,30.3,29.81,NNE,22,0.0,0.0,82,0.00,OVC,SKC,0.00,WeatherDisplay:10.37,2013-02-12 15:47:00,
2013-02-12 16:52:00,34.9,29.9,29.82,NE,45,0.2,1.1,82,0.00,OVC,SKC,0.00,WeatherDisplay:10.37,2013-02-12 15:52:00,
2013-02-12 16:57:00,34.9,29.9,29.82,NNE,22,0.5,1.1,82,0.00,OVC,SKC,0.00,WeatherDisplay:10.37,2013-02-12 15:57:00,
2013-02-12 17:02:00,34.9,29.9,29.82,North,0,0.0,0.0,82,0.00,OVC,SKC,0.00,WeatherDisplay:10.37,2013-02-12 16:02:00,
2013-02-12 17:07:00,34.9,29.9,29.82,NNW,338,0.6,1.1,82,0.00,OVC,SKC,0.00,WeatherDisplay:10.37,2013-02-12 16:07:00,
2013-02-12 17:12:00,34.9,29.9,29.83,North,0,0.0,0.0,82,0.00,OVC,SKC,0.00,WeatherDisplay:10.37,2013-02-12 16:12:00,
2013-02-12 17:17:00,34.7,29.8,29.83,North,0,0.0,0.0,82,0.00,OVC,SKC,0.00,WeatherDisplay:10.37,2013-02-12 16:17:00,
2013-02-12 17:22:00,34.7,29.8,29.83,NW,315,0.0,0.0,82,0.00,OVC,SKC,0.00,WeatherDisplay:10.37,2013-02-12 16:22:00,
2013-02-12 17:27:00,34.7,29.8,29.83,NW,315,0.0,0.0,82,0.00,OVC,SKC,0.00,WeatherDisplay:10.37,2013-02-12 16:27:00,
2013-02-12 17:32:00,34.5,29.6,29.83,NW,315,0.0,0.0,82,0.00,OVC,SKC,0.00,WeatherDisplay:10.37,2013-02-12 16:32:00,
2013-02-12 17:37:00,34.5,29.6,29.83,ENE,68,1.6,1.6,82,0.00,OVC,SKC,0.00,WeatherDisplay:10.37,2013-02-12 16:37:00,
2013-02-12 17:42:00,34.7,29.8,29.83,NNW,338,0.8,1.1,82,0.00,OVC,SKC,0.00,WeatherDisplay:10.37,2013-02-12 16:42:00,
2013-02-12 17:47:00,34.7,29.8,29.83,NNW,338,0.9,1.1,82,0.00,-SN,SKC,0.00,WeatherDisplay:10.37,2013-02-12 16:47:00,
2013-02-12 17:52:00,34.5,29.9,29.83,North,0,0.0,0.0,83,0.00,-SN,SKC,0.00,WeatherDisplay:10.37,2013-02-12 16:52:00,
2013-02-12 17:57:00,34.5,29.9,29.83,NW,315,0.9,1.1,83,0.00,-SN,SKC,0.00,WeatherDisplay:10.37,2013-02-12 16:57:00,
2013-02-12 18:02:00,34.5,29.9,29.83,NW,315,0.9,1.1,83,0.00,-SN,SKC,0.00,WeatherDisplay:10.37,2013-02-12 17:02:00,
2013-02-12 18:07:00,34.5,29.9,29.83,WNW,292,0.0,0.0,83,0.00,-SN,SKC,0.00,WeatherDisplay:10.37,2013-02-12 17:07:00,
2013-02-12 18:12:00,34.5,29.9,29.84,WNW,292,0.0,0.0,83,0.00,-SN,SKC,0.00,WeatherDisplay:10.37,2013-02-12 17:12:00,
2013-02-12 18:17:00,34.3,29.7,29.84,WNW,292,0.0,1.1,83,0.00,-SN,SKC,0.00,WeatherDisplay:10.37,2013-02-12 17:17:00,
2013-02-12 18:22:00,34.3,29.7,29.84,NW,315,2.0,3.5,83,0.00,-SN,SKC,0.00,WeatherDisplay:10.37,2013-02-12 17:22:00,
2013-02-12 18:27:00,34.5,29.9,29.83,NW,315,1.6,2.3,83,0.00,-SN,SKC,0.00,WeatherDisplay:10.37,2013-02-12 17:27:00,
2013-02-12 18:32:00,34.5,29.9,29.84,NW,315,1.6,1.6,83,0.00,-SN,SKC,0.00,WeatherDisplay:10.37,2013-02-12 17:32:00,
2013-02-12 18:37:00,34.3,29.7,29.83,NW,315,1.3,1.3,83,0.00,-SN,SKC,0.00,WeatherDisplay:10.37,2013-02-12 17:37:00,
2013-02-12 18:42:00,34.3,30.0,29.83,NW,315,0.0,0.0,84,0.00,-SN,SKC,0.00,WeatherDisplay:10.37,2013-02-12 17:42:00,
2013-02-12 18:47:00,34.3,30.0,29.83,WNW,292,2.4,2.5,84,0.00,-SN,SKC,0.00,WeatherDisplay:10.37,2013-02-12 17:47:00,
2013-02-12 18:52:00,34.2,30.1,29.84,WNW,292,0.0,2.3,85,0.00,-SN,SKC,0.00,WeatherDisplay:10.37,2013-02-12 17:52:00,
2013-02-12 18:57:00,34.0,29.9,29.83,WNW,292,0.9,1.1,85,0.00,-SN,SKC,0.00,WeatherDisplay:10.37,2013-02-12 17:57:00,
2013-02-12 19:02:00,34.0,30.2,29.83,West,270,5.3,8.3,86,0.00,-SN,SKC,0.00,WeatherDisplay:10.37,2013-02-12 18:02:00,
2013-02-12 19:07:00,34.0,30.2,29.83,WNW,292,2.1,8.1,86,0.00,-SN,SKC,0.00,WeatherDisplay:10.37,2013-02-12 18:07:00,
2013-02-12 19:12:00,34.0,30.2,29.83,WNW,292,1.8,2.3,86,0.00,-SN,SKC,0.00,WeatherDisplay:10.37,2013-02-12 18:12:00,
2013-02-12 19:17:00,33.8,30.3,29.84,WNW,292,2.7,3.5,87,0.00,-SN,SKC,0.00,WeatherDisplay:10.37,2013-02-12 18:17:00,
2013-02-12 19:22:00,33.8,30.3,29.84,WNW,292,1.2,1.2,87,0.00,-SN,SKC,0.00,WeatherDisplay:10.37,2013-02-12 18:22:00,
2013-02-12 19:27:00,33.8,30.3,29.84,NW,315,1.6,2.3,87,0.00,-SN,SKC,0.00,WeatherDisplay:10.37,2013-02-12 18:27:00,
2013-02-12 19:32:00,33.8,30.3,29.84,NW,315,1.5,2.3,87,0.00,-SN,SKC,0.00,WeatherDisplay:10.37,2013-02-12 18:32:00,
2013-02-12 19:37:00,34.0,30.5,29.84,NW,315,0.0,1.1,87,0.00,-SN,SKC,0.00,WeatherDisplay:10.37,2013-02-12 18:37:00,
2013-02-12 19:42:00,34.0,30.5,29.84,NW,315,0.0,0.0,87,0.00,-SN,SKC,0.00,WeatherDisplay:10.37,2013-02-12 18:42:00,
2013-02-12 19:47:00,34.0,30.8,29.84,NNE,22,2.9,3.5,88,0.00,-RA,SKC,0.00,WeatherDisplay:10.37,2013-02-12 18:47:00,
2013-02-12 19:52:00,34.0,30.8,29.84,NW,315,0.0,0.0,88,0.00,-RA,SKC,0.00,WeatherDisplay:10.37,2013-02-12 18:52:00,
2013-02-12 19:58:00,34.0,30.8,29.84,NW,315,0.0,0.0,88,0.00,-RA,SKC,0.00,WeatherDisplay:10.37,2013-02-12 18:58:00,
2013-02-12 20:03:00,34.0,30.8,29.84,NW,316,0.0,0.0,88,0.00,-RA,SKC,0.00,WeatherDisplay:10.37,2013-02-12 19:03:00,
2013-02-12 20:08:00,34.0,30.8,29.84,NW,316,0.0,0.0,88,0.00,-RA,SKC,0.00,WeatherDisplay:10.37,2013-02-12 19:08:00,
2013-02-12 20:13:00,34.0,30.8,29.85,NW,316,0.0,0.0,88,0.00,-RA,SKC,0.00,WeatherDisplay:10.37,2013-02-12 19:13:00,
2013-02-12 20:18:00,34.0,30.8,29.84,NW,316,0.0,0.0,88,0.00,-RA,SKC,0.00,WeatherDisplay:10.37,2013-02-12 19:18:00,
2013-02-12 20:23:00,34.0,31.1,29.84,NNW,338,2.0,2.3,89,0.00,-RA,SKC,0.00,WeatherDisplay:10.37,2013-02-12 19:23:00,
2013-02-12 20:28:00,34.0,31.1,29.83,NW,315,2.9,3.5,89,0.00,-RA,SKC,0.00,WeatherDisplay:10.37,2013-02-12 19:28:00,
2013-02-12 20:33:00,34.0,31.1,29.84,NNW,338,1.4,3.5,89,0.00,-RA,SKC,0.00,WeatherDisplay:10.37,2013-02-12 19:33:00,
2013-02-12 20:38:00,34.0,31.1,29.84,NW,315,1.2,1.2,89,0.00,-RA,SKC,0.00,WeatherDisplay:10.37,2013-02-12 19:38:00,
2013-02-12 20:43:00,34.0,31.1,29.84,WNW,292,3.5,3.5,89,0.00,-RA,SKC,0.00,WeatherDisplay:10.37,2013-02-12 19:43:00,
2013-02-12 20:48:00,34.0,31.1,29.83,WNW,292,3.8,3.8,89,0.00,-RA,SKC,0.00,WeatherDisplay:10.37,2013-02-12 19:48:00,
2013-02-12 20:53:00,34.2,31.3,29.84,WNW,292,1.6,1.6,89,0.00,-RA,SKC,0.00,WeatherDisplay:10.37,2013-02-12 19:53:00,
2013-02-12 20:58:00,34.3,31.7,29.84,NNW,338,3.8,4.6,90,0.00,-RA,SKC,0.00,WeatherDisplay:10.37,2013-02-12 19:58:00,
2013-02-12 21:03:00,34.3,31.7,29.84,NNW,338,3.8,3.8,90,0.00,-RA,SKC,0.00,WeatherDisplay:10.37,2013-02-12 20:03:00,
2013-02-12 21:08:00,34.3,31.7,29.84,North,0,0.0,0.0,90,0.00,-RA,SKC,0.00,WeatherDisplay:10.37,2013-02-12 20:08:00,
2013-02-12 21:13:00,34.3,31.4,29.85,NNE,22,0.0,0.0,89,0.00,-RA,SKC,0.00,WeatherDisplay:10.37,2013-02-12 20:13:00,
2013-02-12 21:18:00,34.3,31.4,29.84,NW,315,0.0,0.0,89,0.00,OVC,SKC,0.00,WeatherDisplay:10.37,2013-02-12 20:18:00,
2013-02-12 21:23:00,34.3,31.4,29.84,WNW,292,0.0,0.0,89,0.00,OVC,SKC,0.00,WeatherDisplay:10.37,2013-02-12 20:23:00,
2013-02-12 21:28:00,34.3,31.4,29.84,NW,315,1.1,1.1,89,0.00,OVC,SKC,0.00,WeatherDisplay:10.37,2013-02-12 20:28:00,
2013-02-12 21:33:00,34.3,31.4,29.85,WNW,292,0.0,0.0,89,0.00,OVC,SKC,0.00,WeatherDisplay:10.37,2013-02-12 20:33:00,
2013-02-12 21:38:00,34.3,31.4,29.85,West,270,1.1,1.3,89,0.00,OVC,SKC,0.00,WeatherDisplay:10.37,2013-02-12 20:38:00,
2013-02-12 21:43:00,34.3,31.4,29.85,WNW,292,0.0,0.0,89,0.00,OVC,SKC,0.00,WeatherDisplay:10.37,2013-02-12 20:43:00,
2013-02-12 21:48:00,34.3,31.7,29.85,WNW,292,0.0,0.0,90,0.00,OVC,SKC,0.00,WeatherDisplay:10.37,2013-02-12 20:48:00,
2013-02-12 21:53:00,34.3,31.7,29.85,NW,315,0.9,1.1,90,0.00,OVC,SKC,0.00,WeatherDisplay:10.37,2013-02-12 20:53:00,
2013-02-12 21:58:00,34.3,31.7,29.85,WNW,292,2.7,2.7,90,0.00,OVC,SKC,0.00,WeatherDisplay:10.37,2013-02-12 20:58:00,
2013-02-12 22:03:00,34.5,31.9,29.85,WNW,292,0.0,0.0,90,0.00,-RA,SKC,0.00,WeatherDisplay:10.37,2013-02-12 21:03:00,
2013-02-12 22:08:00,34.5,31.9,29.85,WNW,292,2.0,2.3,90,0.00,-RA,SKC,0.00,WeatherDisplay:10.37,2013-02-12 21:08:00,
2013-02-12 22:13:00,34.5,31.9,29.85,WNW,292,1.3,1.3,90,0.00,-RA,SKC,0.00,WeatherDisplay:10.37,2013-02-12 21:13:00,
2013-02-12 22:18:00,34.5,31.9,29.85,WNW,292,2.2,2.3,90,0.00,-RA,SKC,0.00,WeatherDisplay:10.37,2013-02-12 21:18:00,
2013-02-12 22:23:00,34.5,31.9,29.85,WNW,292,1.6,1.6,90,0.00,-RA,SKC,0.00,WeatherDisplay:10.37,2013-02-12 21:23:00,
2013-02-12 22:28:00,34.5,31.9,29.85,WNW,292,2.3,2.3,90,0.00,-RA,SKC,0.00,WeatherDisplay:10.37,2013-02-12 21:28:00,
2013-02-12 22:33:00,34.7,32.1,29.85,West,270,3.1,3.5,90,0.00,-RA,SKC,0.00,WeatherDisplay:10.37,2013-02-12 21:33:00,
2013-02-12 22:38:00,34.5,31.9,29.86,WNW,292,6.2,8.5,90,0.00,-RA,SKC,0.00,WeatherDisplay:10.37,2013-02-12 21:38:00,
2013-02-12 22:43:00,34.5,31.9,29.85,West,270,1.2,6.9,90,0.00,-RA,SKC,0.00,WeatherDisplay:10.37,2013-02-12 21:43:00,
2013-02-12 22:48:00,34.5,31.9,29.86,NW,315,0.7,1.1,90,0.00,-RA,SKC,0.00,WeatherDisplay:10.37,2013-02-12 21:48:00,
2013-02-12 22:53:00,34.5,31.9,29.86,WNW,292,0.9,1.1,90,0.00,-RA,SKC,0.00,WeatherDisplay:10.37,2013-02-12 21:53:00,
2013-02-12 22:58:00,34.3,31.7,29.86,WNW,292,2.2,2.3,90,0.00,-RA,SKC,0.00,WeatherDisplay:10.37,2013-02-12 21:58:00,
2013-02-12 23:03:00,34.3,31.7,29.87,WNW,292,1.1,1.1,90,0.00,-RA,SKC,0.00,WeatherDisplay:10.37,2013-02-12 22:03:00,
2013-02-12 23:08:00,34.3,31.7,29.86,WNW,292,1.1,1.1,90,0.00,-RA,SKC,0.00,WeatherDisplay:10.37,2013-02-12 22:08:00,
2013-02-12 23:13:00,34.3,31.7,29.87,WNW,292,0.0,0.0,90,0.00,-RA,SKC,0.00,WeatherDisplay:10.37,2013-02-12 22:13:00,
2013-02-12 23:18:00,34.3,31.7,29.87,WNW,292,0.0,0.0,90,0.00,-RA,SKC,0.00,WeatherDisplay:10.37,2013-02-12 22:18:00,
2013-02-12 23:23:00,34.3,31.7,29.87,WNW,292,0.0,0.0,90,0.00,-RA,SKC,0.00,WeatherDisplay:10.37,2013-02-12 22:23:00,
2013-02-12 23:28:00,34.3,31.7,29.87,WNW,292,0.0,1.0,90,0.00,-RA,SKC,0.00,WeatherDisplay:10.37,2013-02-12 22:28:00,
2013-02-12 23:33:00,34.2,31.8,29.87,NW,315,6.2,13.8,91,0.00,-RA,SKC,0.00,WeatherDisplay:10.37,2013-02-12 22:33:00,
2013-02-12 23:38:00,34.2,31.8,29.87,NW,308,0.0,0.0,91,0.00,-RA,SKC,0.00,WeatherDisplay:10.37,2013-02-12 22:38:00,
2013-02-12 23:43:00,34.0,31.6,29.87,NW,315,2.7,2.7,91,0.00,-RA,SKC,0.00,WeatherDisplay:10.37,2013-02-12 22:43:00,
2013-02-12 23:48:00,34.2,31.8,29.87,NW,315,1.0,2.3,91,0.00,-RA,SKC,0.00,WeatherDisplay:10.37,2013-02-12 22:48:00,
2013-02-12 23:53:00,34.2,31.8,29.87,NW,315,0.7,1.1,91,0.00,-RA,SKC,0.00,WeatherDisplay:10.37,2013-02-12 22:53:00,
2013-02-12 23:58:00,34.2,31.9,29.87,NW,312,1.0,2.0,91,0.00,-RA,SKC,0.00,WeatherDisplay:10.37,2013-02-12 22:58:00,